Time;durP1;ratioP1;P1;durP2;ratioP2;P2;SDS_P1;SDS_P2;PMS_P1;PMS_P2;Temp;Humidity;BMP_temperature;BMP_pressure;BME280_temperature;BME280_humidity;BME280_pressure;Samples;Min_cycle;Max_cycle;Signal;HPM_P1;HPM_P2
2022/03/04 00:02:07;;;;;;;28.15;17.17;;;4.80;87.30;;;;;;5077823;28;20013;-43
2022/03/04 00:04:37;;;;;;;32.38;18.88;;;4.80;87.50;;;;;;5065551;28;20078;-42
2022/03/04 00:07:05;;;;;;;25.08;17.80;;;4.70;87.80;;;;;;5079365;28;20086;-42
2022/03/04 00:09:32;;;;;;;24.38;16.23;;;4.70;88.10;;;;;;5066199;28;20099;-40
2022/03/04 00:11:58;;;;;;;28.52;17.38;;;4.70;88.20;;;;;;5078198;28;20157;-42
2022/03/04 00:14:26;;;;;;;25.90;17.27;;;4.70;89.00;;;;;;5066229;28;20099;-40
2022/03/04 00:16:53;;;;;;;27.13;17.27;;;4.70;88.60;;;;;;5077434;28;20051;-40
2022/03/04 00:19:19;;;;;;;23.35;16.23;;;4.60;88.80;;;;;;5066507;28;20033;-42
2022/03/04 00:21:50;;;;;;;28.15;18.38;;;4.60;88.90;;;;;;5075053;28;20043;-42
2022/03/04 00:24:17;;;;;;;25.45;17.38;;;4.60;89.20;;;;;;5069122;28;20107;-42
2022/03/04 00:26:43;;;;;;;27.85;18.05;;;4.60;89.40;;;;;;5072568;28;20032;-41
2022/03/04 00:29:09;;;;;;;24.90;16.92;;;4.50;89.30;;;;;;5071855;28;20067;-41
2022/03/04 00:31:35;;;;;;;24.40;17.13;;;4.50;89.50;;;;;;5070561;28;20020;-41
2022/03/04 00:34:02;;;;;;;27.10;17.42;;;4.50;89.50;;;;;;5072985;28;20055;-41
2022/03/04 00:36:31;;;;;;;29.30;17.13;;;4.50;89.70;;;;;;5067455;28;20036;-41
2022/03/04 00:38:56;;;;;;;23.23;15.73;;;4.40;89.80;;;;;;5075376;28;20458;-43
2022/03/04 00:41:23;;;;;;;25.38;16.88;;;4.40;90.00;;;;;;5066447;28;20028;-41
2022/03/04 00:43:49;;;;;;;29.25;17.85;;;4.40;90.10;;;;;;5076494;28;20503;-40
2022/03/04 00:46:15;;;;;;;26.10;17.77;;;4.40;90.20;;;;;;5066999;28;20401;-40
2022/03/04 00:48:42;;;;;;;25.33;16.58;;;4.30;90.30;;;;;;5076321;28;20031;-41
2022/03/04 00:51:08;;;;;;;26.45;17.48;;;4.30;90.40;;;;;;5065680;28;20025;-42
2022/03/04 00:53:34;;;;;;;26.88;17.95;;;4.30;90.50;;;;;;5077505;28;20032;-42
2022/03/04 00:55:59;;;;;;;29.75;18.23;;;4.30;90.60;;;;;;5065780;28;20056;-42
2022/03/04 00:58:25;;;;;;;27.30;18.17;;;4.30;90.70;;;;;;5077740;28;20028;-40
2022/03/04 01:00:51;;;;;;;24.83;16.25;;;4.20;90.80;;;;;;5064701;28;20063;-41
2022/03/04 01:03:16;;;;;;;25.23;16.20;;;4.20;90.90;;;;;;5075591;28;20115;-41
2022/03/04 01:05:42;;;;;;;29.67;18.10;;;4.20;91.00;;;;;;5068042;28;20048;-41
2022/03/04 01:08:08;;;;;;;26.40;16.35;;;4.20;91.20;;;;;;5074204;28;20066;-42
2022/03/04 01:10:34;;;;;;;27.90;17.23;;;4.10;91.20;;;;;;5077103;28;20040;-42
2022/03/04 01:13:00;;;;;;;26.52;16.23;;;4.10;91.20;;;;;;5077084;28;20020;-42
2022/03/04 01:15:25;;;;;;;25.70;16.77;;;4.10;91.30;;;;;;5079483;28;20078;-40
2022/03/04 01:17:51;;;;;;;27.45;16.40;;;4.10;91.40;;;;;;5073516;28;20491;-40
2022/03/04 01:20:16;;;;;;;24.48;15.48;;;4.10;91.40;;;;;;5082072;28;20131;-42
2022/03/04 01:22:42;;;;;;;25.30;16.42;;;4.10;91.50;;;;;;5072863;28;20082;-43
2022/03/04 01:25:08;;;;;;;26.52;17.10;;;4.10;91.70;;;;;;5082676;28;20106;-42
2022/03/04 01:27:34;;;;;;;28.05;17.65;;;4.00;91.70;;;;;;5072543;28;20036;-42
2022/03/04 01:29:59;;;;;;;30.05;18.63;;;4.00;91.90;;;;;;5083292;28;20016;-41
2022/03/04 01:32:25;;;;;;;27.98;17.30;;;4.00;91.90;;;;;;5071916;28;20094;-41
2022/03/04 01:34:51;;;;;;;28.35;18.83;;;4.00;92.00;;;;;;5084355;28;20368;-42
2022/03/04 01:37:17;;;;;;;28.23;18.17;;;4.00;92.20;;;;;;5071118;28;20028;-42
2022/03/04 01:39:42;;;;;;;27.73;17.13;;;4.00;92.30;;;;;;5083856;28;20020;-41
2022/03/04 01:42:08;;;;;;;25.65;16.23;;;4.00;92.30;;;;;;5072449;28;20661;-42
2022/03/04 01:44:34;;;;;;;25.73;16.73;;;3.90;92.30;;;;;;5079477;28;20106;-43
2022/03/04 01:47:00;;;;;;;23.77;16.33;;;3.90;92.40;;;;;;5074955;28;20062;-40
2022/03/04 01:49:26;;;;;;;27.30;16.58;;;3.90;92.50;;;;;;5077427;28;20016;-42
2022/03/04 01:51:51;;;;;;;26.67;16.85;;;3.90;92.60;;;;;;5076740;28;20586;-40
2022/03/04 01:54:17;;;;;;;25.20;15.63;;;3.80;92.60;;;;;;5075324;28;20519;-41
2022/03/04 01:56:45;;;;;;;24.73;15.35;;;3.80;92.70;;;;;;5079868;28;20040;-43
2022/03/04 01:59:11;;;;;;;25.48;15.90;;;3.80;92.80;;;;;;5073008;28;20029;-40
2022/03/04 02:01:36;;;;;;;26.42;16.33;;;3.70;92.90;;;;;;5082893;28;20020;-42
2022/03/04 02:04:02;;;;;;;26.95;17.13;;;3.70;93.10;;;;;;5072185;28;20085;-41
2022/03/04 02:06:28;;;;;;;25.45;16.30;;;3.70;93.10;;;;;;5082745;28;20109;-41
2022/03/04 02:08:53;;;;;;;25.00;16.40;;;3.70;93.20;;;;;;5071723;28;20025;-41
2022/03/04 02:11:19;;;;;;;24.38;15.48;;;3.60;93.30;;;;;;5082602;28;20085;-41
2022/03/04 02:13:45;;;;;;;25.17;15.75;;;3.60;93.30;;;;;;5071428;28;20647;-41
2022/03/04 02:16:29;;;;;;;28.02;17.42;;;3.60;93.50;;;;;;5083624;28;20078;-40
2022/03/04 02:18:54;;;;;;;26.40;16.00;;;3.60;93.60;;;;;;5070233;28;20035;-41
2022/03/04 02:21:23;;;;;;;25.20;16.67;;;3.60;93.80;;;;;;5079452;28;20466;-41
2022/03/04 02:23:48;;;;;;;27.17;16.55;;;3.50;93.80;;;;;;5068278;28;20020;-43
2022/03/04 02:26:14;;;;;;;27.92;17.13;;;3.50;94.00;;;;;;5078673;28;20090;-43
2022/03/04 02:28:40;;;;;;;25.75;15.98;;;3.50;94.10;;;;;;5068675;28;20021;-42
2022/03/04 02:31:06;;;;;;;25.50;15.35;;;3.50;94.10;;;;;;5077287;28;20374;-41
2022/03/04 02:33:31;;;;;;;27.05;16.27;;;3.40;94.30;;;;;;5071389;28;20103;-41
2022/03/04 02:35:57;;;;;;;22.52;14.10;;;3.40;94.30;;;;;;5074177;28;20020;-40
2022/03/04 02:38:22;;;;;;;22.25;13.75;;;3.40;94.30;;;;;;5073756;28;20462;-39
2022/03/04 02:40:51;;;;;;;24.20;15.82;;;3.40;94.40;;;;;;5071184;28;20038;-43
2022/03/04 02:43:16;;;;;;;28.35;16.70;;;3.40;94.60;;;;;;5076106;28;20027;-43
2022/03/04 02:45:42;;;;;;;27.67;16.45;;;3.30;94.70;;;;;;5069271;28;20036;-41
2022/03/04 02:48:07;;;;;;;25.42;15.85;;;3.30;94.90;;;;;;5076406;28;20039;-40
2022/03/04 02:50:33;;;;;;;25.05;14.80;;;3.30;94.90;;;;;;5086083;28;20162;-40
2022/03/04 02:52:58;;;;;;;25.73;15.40;;;3.30;95.00;;;;;;5075725;28;20036;-42
2022/03/04 02:55:24;;;;;;;25.65;15.32;;;3.30;95.00;;;;;;5086211;28;20048;-42
2022/03/04 02:57:49;;;;;;;24.33;16.20;;;3.20;95.10;;;;;;5073774;28;20024;-41
2022/03/04 03:00:19;;;;;;;25.88;16.27;;;3.20;95.20;;;;;;5086859;28;20028;-43
2022/03/04 03:02:45;;;;;;;30.50;16.88;;;3.20;95.30;;;;;;5073857;28;20766;-42
2022/03/04 03:05:11;;;;;;;27.90;17.27;;;3.20;95.50;;;;;;5087561;28;20530;-41
2022/03/04 03:07:37;;;;;;;24.25;15.90;;;3.20;95.80;;;;;;5075037;28;20020;-41
2022/03/04 03:10:04;;;;;;;26.80;16.75;;;3.10;95.70;;;;;;5086837;28;20024;-41
2022/03/04 03:12:29;;;;;;;25.55;15.48;;;3.10;95.70;;;;;;5077896;28;20062;-40
2022/03/04 03:14:55;;;;;;;27.00;16.65;;;3.10;95.90;;;;;;5083345;28;20060;-42
2022/03/04 03:17:23;;;;;;;27.40;16.45;;;3.10;96.00;;;;;;5080711;28;20024;-41
2022/03/04 03:19:49;;;;;;;26.35;16.35;;;3.10;96.20;;;;;;5081370;28;20023;-40
2022/03/04 03:22:16;;;;;;;27.10;17.33;;;3.00;96.20;;;;;;5082500;28;20704;-39
2022/03/04 03:24:43;;;;;;;26.45;16.13;;;3.00;96.30;;;;;;5079138;28;20157;-40
2022/03/04 03:27:08;;;;;;;26.40;16.45;;;3.00;96.40;;;;;;5084936;28;20081;-43
2022/03/04 03:29:34;;;;;;;27.42;15.43;;;3.00;96.50;;;;;;5076072;28;20028;-41
2022/03/04 03:32:00;;;;;;;25.25;16.10;;;2.90;96.60;;;;;;5085950;28;20060;-41
2022/03/04 03:34:25;;;;;;;26.30;15.07;;;2.90;96.70;;;;;;5076248;28;20071;-41
2022/03/04 03:36:51;;;;;;;24.75;15.48;;;2.90;96.70;;;;;;5085482;28;20071;-40
2022/03/04 03:39:16;;;;;;;26.15;16.25;;;2.90;96.80;;;;;;5074657;28;20123;-40
2022/03/04 03:41:42;;;;;;;27.55;16.13;;;2.80;96.90;;;;;;5086537;28;20032;-40
2022/03/04 03:44:10;;;;;;;27.10;15.90;;;2.80;97.10;;;;;;5073252;28;20048;-41
2022/03/04 03:46:36;;;;;;;24.58;14.80;;;2.80;97.20;;;;;;5086702;28;20031;-43
2022/03/04 03:49:02;;;;;;;26.13;16.00;;;2.80;97.30;;;;;;5074917;28;20418;-41
2022/03/04 03:51:27;;;;;;;23.80;15.25;;;2.70;97.40;;;;;;5085719;28;20034;-42
2022/03/04 03:53:53;;;;;;;25.08;14.90;;;2.70;97.40;;;;;;5076796;28;20024;-42
2022/03/04 03:56:18;;;;;;;24.88;15.15;;;2.70;97.50;;;;;;5082204;28;20503;-42
2022/03/04 03:58:44;;;;;;;24.77;14.85;;;2.70;97.50;;;;;;5080148;28;20025;-42
2022/03/04 04:01:09;;;;;;;24.23;14.38;;;2.60;97.60;;;;;;5080165;28;20375;-41
2022/03/04 04:03:35;;;;;;;25.38;15.25;;;2.60;97.70;;;;;;5080616;28;20028;-40
2022/03/04 04:06:01;;;;;;;28.67;16.98;;;2.60;97.80;;;;;;5076817;28;20038;-41
2022/03/04 04:08:26;;;;;;;28.15;16.98;;;2.60;97.90;;;;;;5084271;28;20107;-41
2022/03/04 04:10:52;;;;;;;26.05;16.50;;;2.50;98.00;;;;;;5073482;28;20038;-41
2022/03/04 04:13:17;;;;;;;25.48;15.10;;;2.50;98.20;;;;;;5084469;28;20154;-42
2022/03/04 04:15:43;;;;;;;27.95;16.15;;;2.50;98.20;;;;;;5074630;28;20051;-42
2022/03/04 04:18:08;;;;;;;25.85;15.07;;;2.50;98.40;;;;;;5084819;28;20035;-41
2022/03/04 04:20:35;;;;;;;25.50;15.00;;;2.50;98.50;;;;;;5073938;28;20032;-42
2022/03/04 04:23:00;;;;;;;25.00;14.90;;;2.50;98.50;;;;;;5086655;28;20028;-41
2022/03/04 04:25:26;;;;;;;26.60;16.02;;;2.40;98.50;;;;;;5072277;28;20085;-41
2022/03/04 04:27:54;;;;;;;26.98;16.05;;;2.40;98.70;;;;;;5086355;28;20494;-41
2022/03/04 04:30:19;;;;;;;26.27;16.05;;;2.40;98.80;;;;;;5073847;28;20112;-42
2022/03/04 04:32:45;;;;;;;24.15;15.07;;;2.30;99.10;;;;;;5083906;28;20127;-42
2022/03/04 04:35:10;;;;;;;26.35;16.35;;;2.40;99.10;;;;;;5076971;28;20032;-40
2022/03/04 04:37:36;;;;;;;26.60;16.08;;;2.30;99.20;;;;;;5081879;28;20030;-42
2022/03/04 04:40:04;;;;;;;24.95;16.13;;;2.30;99.50;;;;;;5079227;28;20202;-41
2022/03/04 04:42:30;;;;;;;28.70;16.75;;;2.30;99.60;;;;;;5079969;28;20031;-40
2022/03/04 04:44:55;;;;;;;25.80;16.83;;;2.20;99.70;;;;;;5081886;28;20044;-42
2022/03/04 04:47:21;;;;;;;25.15;15.48;;;2.20;99.90;;;;;;5076043;28;20105;-41
2022/03/04 04:49:47;;;;;;;26.45;16.42;;;2.20;99.90;;;;;;5074520;28;20035;-42
2022/03/04 04:52:13;;;;;;;24.63;16.45;;;2.20;99.90;;;;;;5077399;28;20549;-42
2022/03/04 04:54:38;;;;;;;27.42;17.23;;;2.20;99.90;;;;;;5066280;28;20491;-42
2022/03/04 04:57:04;;;;;;;27.52;16.98;;;2.20;99.90;;;;;;5077727;28;20169;-44
2022/03/04 04:59:30;;;;;;;26.95;16.88;;;2.20;99.90;;;;;;5064880;28;20024;-43
2022/03/04 05:01:56;;;;;;;28.17;17.35;;;2.10;99.90;;;;;;5072956;28;20008;-41
2022/03/04 05:04:21;;;;;;;24.98;16.02;;;2.10;99.90;;;;;;5086074;28;20034;-41
2022/03/04 05:06:47;;;;;;;28.52;16.20;;;2.10;99.90;;;;;;5071474;28;20768;-42
2022/03/04 05:09:12;;;;;;;25.63;15.52;;;2.10;99.90;;;;;;5085921;28;20487;-41
2022/03/04 05:11:38;;;;;;;26.83;17.10;;;2.10;99.90;;;;;;5073757;28;20020;-42
2022/03/04 05:14:03;;;;;;;28.25;17.55;;;2.00;99.90;;;;;;5082469;28;20112;-43
2022/03/04 05:16:29;;;;;;;25.73;16.50;;;2.00;99.90;;;;;;5077393;28;20032;-42
2022/03/04 05:18:54;;;;;;;27.45;17.52;;;2.00;99.90;;;;;;5080102;28;20502;-41
2022/03/04 05:21:20;;;;;;;28.42;17.25;;;2.00;99.90;;;;;;5079392;28;20099;-42
2022/03/04 05:24:01;;;;;;;30.67;18.52;;;1.90;99.90;;;;;;5077831;28;20576;-39
2022/03/04 05:26:28;;;;;;;33.45;20.08;;;1.90;99.90;;;;;;5080544;28;20170;-41
2022/03/04 05:28:55;;;;;;;33.60;19.90;;;1.90;99.90;;;;;;5077125;28;20023;-43
2022/03/04 05:31:20;;;;;;;30.88;18.05;;;1.90;99.90;;;;;;5083327;28;20085;-43
2022/03/04 05:33:46;;;;;;;28.63;17.70;;;1.80;99.90;;;;;;5074841;28;20432;-43
2022/03/04 05:36:12;;;;;;;28.75;17.30;;;1.80;99.90;;;;;;5082895;28;20024;-42
2022/03/04 05:38:37;;;;;;;28.23;17.67;;;1.80;99.90;;;;;;5073237;28;20016;-43
2022/03/04 05:41:06;;;;;;;32.08;20.08;;;1.80;99.90;;;;;;5084493;28;20039;-41
2022/03/04 05:43:31;;;;;;;36.53;20.17;;;1.80;99.90;;;;;;5074889;28;20021;-41
2022/03/04 05:45:57;;;;;;;32.92;20.67;;;1.80;99.90;;;;;;5065117;28;20510;-41
2022/03/04 05:48:22;;;;;;;28.92;17.27;;;1.80;99.90;;;;;;5077942;28;20403;-41
2022/03/04 05:50:48;;;;;;;26.77;17.42;;;1.80;99.90;;;;;;5064182;28;20059;-42
2022/03/04 05:53:14;;;;;;;25.13;15.52;;;1.80;99.90;;;;;;5077172;28;20097;-41
2022/03/04 05:55:39;;;;;;;27.17;17.08;;;1.70;99.90;;;;;;5065596;28;20048;-40
2022/03/04 05:58:05;;;;;;;28.40;17.13;;;1.70;99.90;;;;;;5077926;28;20051;-41
2022/03/04 06:00:31;;;;;;;24.45;14.93;;;1.70;99.90;;;;;;5071290;28;20020;-41
2022/03/04 06:02:57;;;;;;;28.40;17.83;;;1.70;99.90;;;;;;5075142;28;20020;-40
2022/03/04 06:05:22;;;;;;;30.05;18.08;;;1.70;99.90;;;;;;5074030;28;20044;-41
2022/03/04 06:07:48;;;;;;;30.20;17.85;;;1.70;99.90;;;;;;5070749;28;20039;-42
2022/03/04 06:10:14;;;;;;;26.15;16.55;;;1.60;99.90;;;;;;5076167;28;20033;-39
2022/03/04 06:12:39;;;;;;;26.80;16.48;;;1.60;99.90;;;;;;5069839;28;20020;-42
2022/03/04 06:15:06;;;;;;;29.33;17.45;;;1.60;99.90;;;;;;5079319;28;20116;-40
2022/03/04 06:17:31;;;;;;;28.90;17.90;;;1.60;99.90;;;;;;5068942;28;20020;-40
2022/03/04 06:19:57;;;;;;;29.58;18.02;;;1.50;99.90;;;;;;5079471;28;20078;-42
2022/03/04 06:22:22;;;;;;;32.10;19.25;;;1.50;99.90;;;;;;5068260;28;20075;-42
2022/03/04 06:24:48;;;;;;;27.92;17.67;;;1.50;99.90;;;;;;5078652;28;20028;-41
2022/03/04 06:27:14;;;;;;;25.58;16.45;;;1.50;99.90;;;;;;5067794;28;20458;-42
2022/03/04 06:29:40;;;;;;;28.05;17.50;;;1.50;99.90;;;;;;5080132;28;20031;-42
2022/03/04 06:32:06;;;;;;;26.92;16.20;;;1.50;99.90;;;;;;5067220;28;20506;-41
2022/03/04 06:34:32;;;;;;;27.83;16.00;;;1.50;99.90;;;;;;5079798;28;20066;-42
2022/03/04 06:36:58;;;;;;;26.02;17.40;;;1.50;99.90;;;;;;5069737;28;20029;-40
2022/03/04 06:39:23;;;;;;;27.08;16.77;;;1.50;99.90;;;;;;5076962;28;20024;-41
2022/03/04 06:41:49;;;;;;;27.05;17.38;;;1.50;99.90;;;;;;5071083;28;20512;-42
2022/03/04 06:44:14;;;;;;;26.40;16.38;;;1.50;99.90;;;;;;5074379;28;20059;-43
2022/03/04 06:46:40;;;;;;;27.00;16.17;;;1.50;99.90;;;;;;5073219;28;20035;-43
2022/03/04 06:49:10;;;;;;;27.13;16.13;;;1.50;99.90;;;;;;5071352;28;20027;-41
2022/03/04 06:51:36;;;;;;;25.38;16.77;;;1.40;99.90;;;;;;5075987;28;20032;-40
2022/03/04 06:54:02;;;;;;;26.48;17.10;;;1.50;99.90;;;;;;5068571;28;20074;-40
2022/03/04 06:56:27;;;;;;;29.42;18.42;;;1.50;99.90;;;;;;5078581;28;20048;-42
2022/03/04 06:58:54;;;;;;;30.20;17.42;;;1.50;99.90;;;;;;5068616;28;20044;-42
2022/03/04 07:01:19;;;;;;;31.73;19.17;;;1.50;99.90;;;;;;5078277;28;20029;-42
2022/03/04 07:03:45;;;;;;;27.05;17.58;;;1.50;99.90;;;;;;5067281;28;20021;-43
2022/03/04 07:06:10;;;;;;;29.52;17.98;;;1.50;99.90;;;;;;5078703;28;20053;-41
2022/03/04 07:08:37;;;;;;;28.30;17.25;;;1.50;99.90;;;;;;5066795;28;20468;-41
2022/03/04 07:11:04;;;;;;;26.73;16.67;;;1.60;99.90;;;;;;5080036;28;20138;-41
2022/03/04 07:13:29;;;;;;;28.30;16.63;;;1.60;99.90;;;;;;5066611;28;20778;-42
2022/03/04 07:15:55;;;;;;;25.48;15.93;;;1.60;99.90;;;;;;5078900;28;20099;-39
2022/03/04 07:18:23;;;;;;;25.50;15.82;;;1.60;99.90;;;;;;5068532;28;20021;-42
2022/03/04 07:20:49;;;;;;;29.55;18.27;;;1.60;99.90;;;;;;5075305;28;20020;-41
2022/03/04 07:23:16;;;;;;;28.15;17.02;;;1.60;99.90;;;;;;5070833;28;20023;-43
2022/03/04 07:25:41;;;;;;;28.90;17.45;;;1.70;99.90;;;;;;5074003;28;20062;-41
2022/03/04 07:28:08;;;;;;;32.13;19.77;;;1.70;99.90;;;;;;5072260;28;20025;-40
2022/03/04 07:30:33;;;;;;;31.63;20.17;;;1.70;99.90;;;;;;5070521;28;20044;-43
2022/03/04 07:33:02;;;;;;;32.05;19.10;;;1.70;99.90;;;;;;5074902;28;20020;-38
2022/03/04 07:35:28;;;;;;;33.03;19.65;;;1.70;99.90;;;;;;5067719;28;20036;-41
2022/03/04 07:37:53;;;;;;;29.23;18.73;;;1.70;99.90;;;;;;5076968;28;20035;-42
2022/03/04 07:40:19;;;;;;;27.50;17.83;;;1.70;99.90;;;;;;5068969;28;20024;-42
2022/03/04 07:42:44;;;;;;;26.70;16.50;;;1.80;99.90;;;;;;5076935;28;20026;-42
2022/03/04 07:45:11;;;;;;;31.42;18.60;;;1.80;99.90;;;;;;5066926;28;20495;-38
2022/03/04 07:47:38;;;;;;;27.80;17.73;;;1.80;99.90;;;;;;5078398;28;20032;-40
2022/03/04 07:50:06;;;;;;;29.90;19.27;;;1.80;99.90;;;;;;5065794;28;20037;-41
2022/03/04 07:52:31;;;;;;;34.60;19.85;;;1.90;99.90;;;;;;5078719;28;20017;-41
2022/03/04 07:55:01;;;;;;;29.77;18.13;;;1.90;99.90;;;;;;5066580;28;20055;-41
2022/03/04 07:57:26;;;;;;;30.63;19.58;;;1.90;99.90;;;;;;5078178;28;20387;-40
2022/03/04 07:59:52;;;;;;;29.92;17.42;;;1.90;99.90;;;;;;5065704;28;20032;-41
2022/03/04 08:02:18;;;;;;;31.52;19.25;;;2.00;99.90;;;;;;5077200;28;20036;-40
2022/03/04 08:04:45;;;;;;;28.98;19.17;;;2.00;99.90;;;;;;5068070;28;20035;-41
2022/03/04 08:07:10;;;;;;;29.67;18.98;;;2.00;99.90;;;;;;5074732;28;20295;-41
2022/03/04 08:09:36;;;;;;;29.33;18.13;;;2.00;99.90;;;;;;5069609;28;20480;-41
2022/03/04 08:12:02;;;;;;;32.17;20.13;;;2.10;99.90;;;;;;5071630;28;20052;-41
2022/03/04 08:14:28;;;;;;;32.88;20.50;;;2.10;99.90;;;;;;5073450;28;20031;-43
2022/03/04 08:16:53;;;;;;;35.00;20.40;;;2.20;99.90;;;;;;5066689;28;20021;-41
2022/03/04 08:19:19;;;;;;;32.78;19.58;;;2.20;99.90;;;;;;5075846;28;20030;-41
2022/03/04 08:21:45;;;;;;;36.38;19.75;;;2.20;99.90;;;;;;5066669;28;20016;-43
2022/03/04 08:24:11;;;;;;;37.17;21.00;;;2.20;99.90;;;;;;5076531;28;20032;-42
2022/03/04 08:26:38;;;;;;;32.72;20.30;;;2.30;99.90;;;;;;5067007;28;20040;-41
2022/03/04 08:29:06;;;;;;;36.85;21.90;;;2.30;99.90;;;;;;5077053;28;20029;-42
2022/03/04 08:31:31;;;;;;;31.15;19.20;;;2.30;99.90;;;;;;5065519;28;20028;-40
2022/03/04 08:33:57;;;;;;;33.83;19.88;;;2.30;99.90;;;;;;5078652;28;20032;-41
2022/03/04 08:36:22;;;;;;;33.42;19.20;;;2.40;99.90;;;;;;5066266;28;20115;-42
2022/03/04 08:38:48;;;;;;;31.88;18.20;;;2.40;99.90;;;;;;5077097;28;20028;-41
2022/03/04 08:41:14;;;;;;;28.77;17.00;;;2.40;99.90;;;;;;5065758;28;20476;-43
2022/03/04 08:43:40;;;;;;;30.33;18.13;;;2.50;99.90;;;;;;5074708;28;20024;-42
2022/03/04 08:46:06;;;;;;;28.20;18.45;;;2.50;99.90;;;;;;5066774;28;20040;-44
2022/03/04 08:48:31;;;;;;;29.08;18.08;;;2.60;99.90;;;;;;5072315;28;20157;-42
2022/03/04 08:50:57;;;;;;;30.60;17.98;;;2.60;99.90;;;;;;5071038;28;20037;-40
2022/03/04 08:53:22;;;;;;;24.88;16.88;;;2.70;99.90;;;;;;5070195;28;20525;-41
2022/03/04 08:55:50;;;;;;;27.55;16.25;;;2.70;99.90;;;;;;5072598;28;20056;-39
2022/03/04 08:58:16;;;;;;;28.85;17.27;;;2.80;99.90;;;;;;5068076;28;20111;-41
2022/03/04 09:00:42;;;;;;;24.45;16.55;;;2.90;99.90;;;;;;5074560;28;20020;-41
2022/03/04 09:03:08;;;;;;;29.83;18.63;;;2.90;99.90;;;;;;5066881;28;20092;-42
2022/03/04 09:05:35;;;;;;;31.27;18.38;;;2.90;99.90;;;;;;5076531;28;20076;-39
2022/03/04 09:08:01;;;;;;;29.13;16.92;;;3.00;99.90;;;;;;5066065;28;20492;-43
2022/03/04 09:10:27;;;;;;;24.75;15.48;;;3.00;99.90;;;;;;5076555;28;20031;-41
2022/03/04 09:12:52;;;;;;;24.63;15.60;;;3.10;99.90;;;;;;5064733;28;20030;-41
2022/03/04 09:15:18;;;;;;;29.65;17.45;;;3.10;99.90;;;;;;5077914;28;20067;-42
2022/03/04 09:17:44;;;;;;;28.80;17.63;;;3.20;99.90;;;;;;5065432;28;20091;-43
2022/03/04 09:20:10;;;;;;;28.02;17.05;;;3.20;99.90;;;;;;5077446;28;20024;-41
2022/03/04 09:22:36;;;;;;;27.20;17.88;;;3.30;99.90;;;;;;5064625;28;20048;-43
2022/03/04 09:25:02;;;;;;;28.77;17.90;;;3.30;99.90;;;;;;5075831;28;20074;-41
2022/03/04 09:27:28;;;;;;;28.40;18.58;;;3.40;99.90;;;;;;5067222;28;20549;-39
2022/03/04 09:29:53;;;;;;;27.73;17.75;;;3.40;99.90;;;;;;5074292;28;20012;-43
2022/03/04 09:32:19;;;;;;;30.38;18.65;;;3.50;99.90;;;;;;5075243;28;20094;-41
2022/03/04 09:34:45;;;;;;;27.77;17.35;;;3.50;99.90;;;;;;5072988;28;20020;-41
2022/03/04 09:37:11;;;;;;;29.45;18.13;;;3.60;99.90;;;;;;5077376;28;20047;-41
2022/03/04 09:39:36;;;;;;;26.77;17.33;;;3.60;99.90;;;;;;5071461;28;20021;-40
2022/03/04 09:42:02;;;;;;;29.85;17.90;;;3.70;99.90;;;;;;5078869;28;20020;-40
2022/03/04 09:44:28;;;;;;;28.58;17.15;;;3.70;99.90;;;;;;5070827;28;20414;-42
2022/03/04 09:46:56;;;;;;;30.25;17.58;;;3.80;99.90;;;;;;5079909;28;20580;-41
2022/03/04 09:49:26;;;;;;;29.38;17.67;;;3.80;99.90;;;;;;5077395;28;20031;-42
2022/03/04 09:51:52;;;;;;;28.10;17.77;;;3.90;99.90;;;;;;5079701;28;20047;-42
2022/03/04 09:54:18;;;;;;;29.70;19.25;;;3.90;99.90;;;;;;5068849;28;20048;-41
2022/03/04 09:56:43;;;;;;;28.45;18.08;;;4.00;99.90;;;;;;5079409;28;20028;-42
2022/03/04 09:59:09;;;;;;;26.80;18.48;;;4.00;99.90;;;;;;5068499;28;20478;-41
2022/03/04 10:01:34;;;;;;;33.92;20.52;;;4.10;99.90;;;;;;5080979;28;20039;-41
2022/03/04 10:04:00;;;;;;;26.80;16.85;;;4.10;99.90;;;;;;5067778;28;20044;-42
2022/03/04 10:06:26;;;;;;;28.77;18.55;;;4.10;99.90;;;;;;5078961;28;20057;-41
2022/03/04 10:08:53;;;;;;;27.80;17.58;;;4.20;99.90;;;;;;5070370;28;20448;-42
2022/03/04 10:11:34;;;;;;;25.75;16.50;;;4.20;99.90;;;;;;5076221;28;20015;-43
2022/03/04 10:14:07;;;;;;;25.27;17.08;;;4.30;99.90;;;;;;5071620;28;20052;-41
2022/03/04 10:16:38;;;;;;;29.20;18.45;;;4.40;99.90;;;;;;5076088;28;20020;-41
2022/03/04 10:19:16;;;;;;;27.23;16.92;;;4.40;99.90;;;;;;5072319;28;20033;-42
2022/03/04 10:21:49;;;;;;;24.77;15.73;;;4.50;99.90;;;;;;5075705;28;20035;-42
2022/03/04 10:24:16;;;;;;;;;;;4.60;99.90;;;;;;5071425;28;20566;-41
2022/03/04 10:26:42;;;;;;;26.25;15.80;;;4.60;99.90;;;;;;5074723;28;19942;-42
2022/03/04 10:29:22;;;;;;;27.20;17.73;;;4.70;99.90;;;;;;5074100;28;20024;-41
2022/03/04 10:32:06;;;;;;;28.20;17.90;;;4.80;99.90;;;;;;5072957;28;20024;-40
2022/03/04 10:35:01;;;;;;;24.60;15.70;;;4.90;99.90;;;;;;5071763;28;20109;-42
2022/03/04 10:37:50;;;;;;;23.70;16.13;;;4.90;99.90;;;;;;5070946;28;20052;-41
2022/03/04 10:40:24;;;;;;;24.80;16.25;;;5.00;99.90;;;;;;5067628;28;20050;-41
2022/03/04 10:42:56;;;;;;;26.48;17.00;;;5.10;99.90;;;;;;5078627;28;20078;-41
2022/03/04 10:45:25;;;;;;;25.63;15.93;;;5.20;99.90;;;;;;5067858;28;20398;-41
2022/03/04 10:47:53;;;;;;;26.60;17.27;;;5.30;99.90;;;;;;5077375;28;20025;-43
2022/03/04 10:50:31;;;;;;;26.75;17.75;;;5.40;99.90;;;;;;5069458;28;20056;-41
2022/03/04 10:53:00;;;;;;;27.23;17.17;;;5.50;99.90;;;;;;5077430;28;20024;-41
2022/03/04 10:55:33;;;;;;;26.10;16.77;;;5.50;99.90;;;;;;5070311;28;20036;-42
2022/03/04 10:57:59;;;;;;;;;;;5.60;99.90;;;;;;5076691;28;20821;-41
2022/03/04 11:00:36;;;;;;;26.10;17.67;;;5.70;99.90;;;;;;5070112;28;19908;-42
2022/03/04 11:03:04;;;;;;;27.73;18.10;;;5.70;99.90;;;;;;5075029;28;20395;-42
2022/03/04 11:05:29;;;;;;;31.48;20.95;;;5.70;99.90;;;;;;5070765;28;20833;-40
2022/03/04 11:07:56;;;;;;;30.45;20.45;;;5.70;99.90;;;;;;5072245;28;20031;-42
2022/03/04 11:10:22;;;;;;;33.03;22.02;;;5.80;99.90;;;;;;5074723;28;20107;-39
2022/03/04 11:12:53;;;;;;;31.10;19.45;;;5.80;99.90;;;;;;5069027;28;20139;-44
2022/03/04 11:15:20;;;;;;;27.98;18.90;;;5.90;99.90;;;;;;5076504;28;20025;-41
2022/03/04 11:17:46;;;;;;;28.95;19.10;;;6.00;99.90;;;;;;5068291;28;20032;-39
2022/03/04 11:20:13;;;;;;;27.20;18.17;;;6.00;99.80;;;;;;5076143;28;20028;-41
2022/03/04 11:22:40;;;;;;;27.73;18.25;;;6.10;99.80;;;;;;5085235;28;20115;-41
2022/03/04 11:25:10;;;;;;;25.63;16.88;;;6.20;99.90;;;;;;5075821;28;20119;-42
2022/03/04 11:27:43;;;;;;;30.08;18.35;;;6.20;99.80;;;;;;5085780;28;20059;-40
2022/03/04 11:30:46;;;;;;;29.20;18.42;;;6.30;99.70;;;;;;5078435;28;20025;-41
2022/03/04 11:33:11;;;;;;;25.27;17.95;;;6.40;99.50;;;;;;5068615;28;20028;-40
2022/03/04 11:35:43;;;;;;;26.67;18.02;;;6.50;99.30;;;;;;5076925;28;20033;-41
2022/03/04 11:38:12;;;;;;;27.15;17.50;;;6.50;99.30;;;;;;5069109;28;20032;-41
2022/03/04 11:40:48;;;;;;;27.35;18.05;;;6.60;99.30;;;;;;5077123;28;20044;-42
2022/03/04 11:43:18;;;;;;;25.67;17.08;;;6.60;99.20;;;;;;5068455;28;20024;-40
2022/03/04 11:45:44;;;;;;;28.05;18.27;;;6.70;99.20;;;;;;5077737;28;20040;-41
2022/03/04 11:48:12;;;;;;;25.88;17.48;;;6.80;99.00;;;;;;5066215;28;20078;-40
2022/03/04 11:50:47;;;;;;;29.80;18.35;;;6.80;98.90;;;;;;5073700;28;20082;-42
2022/03/04 11:53:24;;;;;;;26.08;17.52;;;6.80;98.70;;;;;;5087099;28;20024;-41
2022/03/04 11:56:11;;;;;;;26.83;18.42;;;6.90;98.60;;;;;;5073101;28;20059;-41
2022/03/04 11:59:04;;;;;;;23.00;15.98;;;6.90;98.50;;;;;;5085748;28;20084;-41
2022/03/04 12:01:35;;;;;;;27.40;19.00;;;7.00;98.60;;;;;;5065118;28;20530;-39
2022/03/04 12:04:10;;;;;;;25.40;17.70;;;7.00;98.30;;;;;;5085325;28;20628;-42
2022/03/04 12:06:37;;;;;;;25.92;16.73;;;7.10;98.20;;;;;;5074926;28;20089;-43
2022/03/04 12:09:28;;;;;;;23.83;15.95;;;7.10;98.20;;;;;;5083937;28;20028;-41
2022/03/04 12:12:33;;;;;;;22.98;16.30;;;7.20;98.10;;;;;;5074475;28;20023;-41
2022/03/04 12:15:16;;;;;;;21.35;15.63;;;7.30;98.00;;;;;;4999278;28;20034;-40
2022/03/04 12:17:59;;;;;;;23.58;16.75;;;7.40;97.80;;;;;;4988466;28;20057;-42
2022/03/04 12:20:28;;;;;;;;;;;7.40;97.60;;;;;;5048130;28;20621;-41
2022/03/04 12:23:11;;;;;;;33.25;21.25;;;7.50;97.20;;;;;;5071078;28;20594;-42
2022/03/04 12:25:52;;;;;;;;;;;7.50;96.50;;;;;;5054817;28;20109;-42
2022/03/04 12:28:22;;;;;;;32.85;19.35;;;7.50;96.30;;;;;;5070293;28;19909;-42
2022/03/04 12:31:06;;;;;;;32.88;18.98;;;7.60;96.20;;;;;;5071455;28;20036;-42
2022/03/04 12:33:32;;;;;;;25.00;17.52;;;7.60;96.30;;;;;;5070095;28;20115;-44
2022/03/04 12:35:59;;;;;;;25.88;17.25;;;7.60;96.20;;;;;;5072182;28;20016;-41
2022/03/04 12:38:29;;;;;;;23.55;16.27;;;7.70;96.20;;;;;;5070394;28;20036;-42
2022/03/04 12:40:58;;;;;;;23.55;16.38;;;7.80;96.10;;;;;;5070556;28;20020;-42